createdAt,value
2022-09-28T00:00:47.808Z,13.47
2022-09-28T00:03:15.381Z,13.41
2022-09-28T00:05:42.670Z,13.46
2022-09-28T00:08:10.017Z,13.25
2022-09-28T00:10:37.654Z,13.41
2022-09-28T00:13:07.716Z,13.30
2022-09-28T00:15:35.580Z,13.46
2022-09-28T00:18:03.161Z,13.03
2022-09-28T00:20:30.461Z,13.13
2022-09-28T00:22:57.802Z,13.00
2022-09-28T00:25:25.429Z,12.97
2022-09-28T00:27:52.749Z,13.20
2022-09-28T00:30:20.073Z,13.32
2022-09-28T00:32:47.687Z,13.45
2022-09-28T00:35:15.078Z,13.44
2022-09-28T00:37:42.445Z,13.32
2022-09-28T00:40:10.145Z,12.85
2022-09-28T00:42:37.463Z,12.93
2022-09-28T00:45:05.313Z,13.11
2022-09-28T00:47:41.891Z,12.86
2022-09-28T00:50:27.032Z,13.30
2022-09-28T00:53:13.565Z,13.17
2022-09-28T00:55:43.167Z,12.29
2022-09-28T00:58:11.830Z,12.39
2022-09-28T01:00:40.993Z,12.51
2022-09-28T01:03:09.090Z,12.72
2022-09-28T01:05:37.144Z,12.03
2022-09-28T01:08:04.610Z,12.33
2022-09-28T01:10:32.153Z,12.18
2022-09-28T01:13:00.127Z,12.48
2022-09-28T01:15:28.652Z,12.66
2022-09-28T01:18:19.679Z,12.31
2022-09-28T01:21:02.528Z,12.39
2022-09-28T01:24:10.555Z,12.44
2022-09-28T01:27:16.670Z,12.90
2022-09-28T01:30:10.307Z,12.91
2022-09-28T01:32:47.046Z,12.65
2022-09-28T01:35:15.566Z,12.75
2022-09-28T01:37:52.476Z,12.87
2022-09-28T01:40:24.228Z,12.76
2022-09-28T01:42:54.892Z,13.17
2022-09-28T01:45:25.405Z,13.26
2022-09-28T01:47:55.581Z,12.95
2022-09-28T01:50:23.107Z,13.29
2022-09-28T01:52:54.469Z,12.55
2022-09-28T01:55:31.027Z,12.62
2022-09-28T01:58:01.823Z,12.79
2022-09-28T02:00:29.585Z,12.99
2022-09-28T02:03:02.293Z,12.60
2022-09-28T02:05:32.984Z,12.27
2022-09-28T02:08:08.792Z,12.18
2022-09-28T02:10:41.502Z,12.54
2022-09-28T02:13:43.657Z,12.63
2022-09-28T02:16:25.966Z,12.73
2022-09-28T02:18:53.610Z,13.00
2022-09-28T02:21:29.066Z,12.78
2022-09-28T02:23:58.241Z,13.07
2022-09-28T02:26:29.634Z,12.82
2022-09-28T02:28:57.940Z,12.29
2022-09-28T02:31:26.388Z,12.81
2022-09-28T02:33:54.044Z,12.76
2022-09-28T02:36:21.809Z,13.01
2022-09-28T02:38:49.419Z,12.38
2022-09-28T02:41:55.657Z,12.41
2022-09-28T02:44:50.620Z,12.68
2022-09-28T02:47:39.158Z,12.92
2022-09-28T02:50:33.220Z,13.32
2022-09-28T02:53:20.302Z,13.29
2022-09-28T02:56:11.440Z,13.39
2022-09-28T02:58:53.253Z,13.49
2022-09-28T03:01:26.769Z,13.69
2022-09-28T03:03:58.766Z,13.78
2022-09-28T03:06:32.500Z,13.80
2022-09-28T03:09:08.842Z,13.76
2022-09-28T03:11:38.822Z,13.68
2022-09-28T03:14:06.277Z,13.47
2022-09-28T03:16:34.624Z,13.54
2022-09-28T03:19:02.310Z,13.54
2022-09-28T03:21:30.589Z,13.60
2022-09-28T03:23:58.158Z,13.61
2022-09-28T03:26:25.751Z,13.64
2022-09-28T03:28:53.094Z,13.53
2022-09-28T03:31:21.373Z,13.63
2022-09-28T03:33:49.018Z,13.43
2022-09-28T03:36:16.441Z,13.62
2022-09-28T03:38:43.861Z,13.77
2022-09-28T03:41:11.644Z,13.50
2022-09-28T03:43:40.799Z,13.72
2022-09-28T03:46:08.250Z,13.76
2022-09-28T03:48:37.536Z,13.91
2022-09-28T03:51:06.941Z,13.51
2022-09-28T03:53:34.252Z,13.40
2022-09-28T03:56:04.444Z,13.62
2022-09-28T03:58:31.965Z,13.63
2022-09-28T04:01:07.743Z,13.73
2022-09-28T04:03:35.888Z,13.53
2022-09-28T04:06:03.163Z,13.71
2022-09-28T04:08:30.744Z,13.35
2022-09-28T04:10:59.450Z,13.00
2022-09-28T04:13:27.741Z,12.77
2022-09-28T04:15:56.274Z,13.21
2022-09-28T04:18:24.063Z,12.96
2022-09-28T04:21:10.214Z,12.99
2022-09-28T04:23:39.196Z,13.16
2022-09-28T04:26:08.022Z,13.42
2022-09-28T04:28:54.205Z,13.00
2022-09-28T04:31:22.209Z,13.05
2022-09-28T04:33:49.593Z,13.32
2022-09-28T04:36:17.944Z,12.74
2022-09-28T04:38:53.692Z,12.94
2022-09-28T04:41:22.414Z,12.77
2022-09-28T04:43:50.433Z,12.76
2022-09-28T04:46:17.823Z,12.69
2022-09-28T04:48:47.052Z,12.90
2022-09-28T04:51:14.667Z,12.79
2022-09-28T04:53:42.015Z,12.77
2022-09-28T04:56:11.637Z,12.76
2022-09-28T04:58:40.245Z,12.82
2022-09-28T05:01:09.481Z,12.65
2022-09-28T05:03:38.052Z,12.68
2022-09-28T05:06:08.981Z,12.99
2022-09-28T05:08:37.046Z,12.07
2022-09-28T05:11:05.622Z,12.50
2022-09-28T05:13:35.925Z,12.69
2022-09-28T05:16:05.557Z,12.70
2022-09-28T05:18:36.019Z,12.86
2022-09-28T05:21:04.256Z,12.76
2022-09-28T05:23:34.294Z,12.76
2022-09-28T05:26:02.476Z,12.64
2022-09-28T05:28:30.830Z,12.72
2022-09-28T05:31:00.226Z,12.87
2022-09-28T05:33:29.306Z,12.70
2022-09-28T05:36:01.076Z,12.74
2022-09-28T05:38:30.233Z,13.10
2022-09-28T05:40:57.831Z,12.75
2022-09-28T05:43:25.365Z,13.16
2022-09-28T05:45:55.545Z,13.28
2022-09-28T05:48:23.402Z,13.30
2022-09-28T05:50:54.062Z,13.20
2022-09-28T05:53:21.758Z,13.19
2022-09-28T05:55:49.119Z,13.23
2022-09-28T05:58:16.572Z,13.27
2022-09-28T06:00:44.226Z,13.36
2022-09-28T06:03:13.328Z,13.26
2022-09-28T06:05:41.324Z,13.28
2022-09-28T06:08:10.549Z,13.50
2022-09-28T06:10:38.757Z,13.61
2022-09-28T06:13:06.662Z,13.35
2022-09-28T06:15:35.384Z,13.13
2022-09-28T06:18:07.937Z,12.85
2022-09-28T06:20:36.924Z,13.22
2022-09-28T06:23:05.310Z,13.57
2022-09-28T06:25:33.482Z,13.77
2022-09-28T06:28:03.012Z,13.64
2022-09-28T06:30:31.638Z,13.83
2022-09-28T06:32:59.928Z,13.67
2022-09-28T06:35:30.284Z,13.87
2022-09-28T06:37:58.755Z,13.91
2022-09-28T06:40:26.456Z,14.11
2022-09-28T06:43:10.148Z,14.41
2022-09-28T06:45:42.095Z,13.87
2022-09-28T06:48:10.075Z,13.39
2022-09-28T06:50:39.949Z,13.66
2022-09-28T06:53:09.547Z,14.08
2022-09-28T06:55:41.812Z,14.42
2022-09-28T06:58:14.636Z,14.39
2022-09-28T07:00:42.201Z,14.46
2022-09-28T07:03:14.418Z,14.10
2022-09-28T07:05:46.386Z,14.44
2022-09-28T07:08:14.946Z,14.74
2022-09-28T07:10:46.871Z,14.60
2022-09-28T07:13:37.608Z,14.44
2022-09-28T07:16:02.922Z,14.42
2022-09-28T07:18:30.472Z,14.98
2022-09-28T07:20:58.309Z,14.68
2022-09-28T07:23:29.581Z,14.73
2022-09-28T07:25:58.975Z,14.91
2022-09-28T07:28:27.047Z,15.01
2022-09-28T07:30:57.019Z,14.47
2022-09-28T07:33:32.590Z,15.11
2022-09-28T07:36:02.876Z,14.96
2022-09-28T07:38:30.830Z,14.98
2022-09-28T07:41:14.317Z,15.01
2022-09-28T07:43:42.325Z,15.02
2022-09-28T07:46:12.240Z,15.38
2022-09-28T07:48:43.633Z,15.69
2022-09-28T07:51:11.761Z,15.72
2022-09-28T07:53:39.170Z,15.91
2022-09-28T07:56:08.830Z,15.50
2022-09-28T07:58:37.365Z,14.98
2022-09-28T08:01:07.789Z,15.38
2022-09-28T08:03:35.591Z,15.75
2022-09-28T08:06:04.782Z,16.02
2022-09-28T08:08:33.736Z,16.02
2022-09-28T08:11:01.778Z,16.21
2022-09-28T08:13:31.087Z,16.46
2022-09-28T08:16:01.629Z,16.34
2022-09-28T08:18:32.827Z,16.31
2022-09-28T08:21:21.382Z,16.45
2022-09-28T08:23:49.350Z,16.35
2022-09-28T08:26:16.890Z,15.96
2022-09-28T08:28:45.214Z,16.20
2022-09-28T08:31:18.374Z,16.41
2022-09-28T08:33:47.909Z,16.66
2022-09-28T08:36:24.672Z,16.58
2022-09-28T08:38:54.595Z,16.53
2022-09-28T08:41:25.614Z,16.66
2022-09-28T08:44:00.892Z,16.47
2022-09-28T08:46:35.519Z,16.41
2022-09-28T08:49:32.478Z,16.84
2022-09-28T08:52:05.396Z,16.90
2022-09-28T08:54:57.989Z,16.79
2022-09-28T08:57:33.652Z,16.58
2022-09-28T09:00:01.166Z,16.52
2022-09-28T09:02:34.551Z,16.97
2022-09-28T09:05:05.031Z,17.13
2022-09-28T09:07:55.440Z,16.73
2022-09-28T09:10:42.660Z,16.91
2022-09-28T09:13:29.155Z,16.92
2022-09-28T09:16:06.754Z,17.15
2022-09-28T09:18:40.857Z,17.38
2022-09-28T09:21:44.025Z,17.56
2022-09-28T09:24:27.528Z,16.78
2022-09-28T09:27:06.592Z,17.21
2022-09-28T09:29:37.522Z,17.27
2022-09-28T09:32:31.810Z,17.54
2022-09-28T09:35:04.249Z,17.31
2022-09-28T09:38:01.945Z,17.45
2022-09-28T09:40:58.365Z,17.66
2022-09-28T09:43:38.848Z,17.64
2022-09-28T09:46:25.649Z,17.60
2022-09-28T09:49:07.159Z,18.31
2022-09-28T09:51:50.089Z,18.29
2022-09-28T09:54:23.544Z,18.31
2022-09-28T09:57:03.741Z,18.57
2022-09-28T09:59:38.027Z,18.55
2022-09-28T10:02:26.159Z,18.48
2022-09-28T10:05:00.056Z,18.56
2022-09-28T10:07:34.858Z,18.54
2022-09-28T10:10:02.790Z,18.45
2022-09-28T10:12:32.413Z,18.66
2022-09-28T10:15:01.216Z,18.56
2022-09-28T10:17:28.900Z,19.20
2022-09-28T10:20:01.097Z,19.02
2022-09-28T10:22:30.803Z,19.54
2022-09-28T10:24:59.284Z,19.60
2022-09-28T10:27:31.958Z,19.58
2022-09-28T10:30:08.128Z,19.72
2022-09-28T10:32:48.840Z,19.98
2022-09-28T10:35:19.988Z,19.54
2022-09-28T10:37:54.524Z,19.52
2022-09-28T10:40:49.485Z,19.64
2022-09-28T10:43:33.531Z,20.15
2022-09-28T10:46:09.607Z,20.13
2022-09-28T10:48:55.676Z,19.98
2022-09-28T10:51:49.787Z,20.05
2022-09-28T10:54:18.387Z,20.19
2022-09-28T10:56:46.637Z,20.19
2022-09-28T10:59:29.311Z,19.85
2022-09-28T11:02:13.119Z,20.08
2022-09-28T11:04:42.677Z,20.11
2022-09-28T11:07:25.857Z,20.25
2022-09-28T11:09:54.553Z,19.90
2022-09-28T11:12:27.161Z,20.38
2022-09-28T11:15:17.670Z,20.22
2022-09-28T11:17:47.037Z,20.52
2022-09-28T11:20:27.768Z,20.69
2022-09-28T11:22:57.870Z,20.51
2022-09-28T11:25:28.701Z,19.84
2022-09-28T11:27:57.430Z,20.18
2022-09-28T11:30:25.862Z,20.32
2022-09-28T11:32:57.541Z,20.20
2022-09-28T11:35:36.615Z,20.32
2022-09-28T11:38:08.822Z,20.38
2022-09-28T11:40:48.939Z,20.11
2022-09-28T11:43:28.733Z,20.15
2022-09-28T11:46:09.786Z,20.18
2022-09-28T11:48:44.265Z,20.00
2022-09-28T11:51:21.842Z,20.15
2022-09-28T11:53:55.161Z,20.18
2022-09-28T11:56:36.296Z,20.29
2022-09-28T11:59:27.578Z,19.99
2022-09-28T12:02:02.485Z,19.63
2022-09-28T12:04:44.476Z,20.09
2022-09-28T12:07:16.641Z,19.41
2022-09-28T12:09:44.038Z,19.78
2022-09-28T12:12:34.629Z,19.29
2022-09-28T12:15:13.735Z,19.32
2022-09-28T12:17:44.050Z,19.42
2022-09-28T12:20:30.927Z,19.32
2022-09-28T12:23:04.150Z,19.35
2022-09-28T12:25:36.877Z,19.31
2022-09-28T12:28:07.514Z,19.44
2022-09-28T12:30:37.284Z,19.45
2022-09-28T12:33:07.047Z,19.55
2022-09-28T12:35:43.639Z,19.26
2022-09-28T12:38:41.642Z,19.53
2022-09-28T12:41:33.214Z,19.32
2022-09-28T12:44:09.655Z,19.66
2022-09-28T12:46:59.595Z,19.63
2022-09-28T12:53:19.402Z,19.91
2022-09-28T12:55:57.931Z,19.66
2022-09-28T12:58:50.592Z,20.07
2022-09-28T13:01:43.572Z,20.28
2022-09-28T13:04:49.683Z,20.46
2022-09-28T13:07:26.667Z,20.67
2022-09-28T13:10:19.159Z,20.61
2022-09-28T13:13:04.610Z,20.37
2022-09-28T13:16:17.655Z,20.18
2022-09-28T13:18:54.234Z,20.07
2022-09-28T13:21:28.300Z,19.65
2022-09-28T13:24:08.717Z,19.77
2022-09-28T13:26:45.220Z,19.76
2022-09-28T13:29:17.756Z,19.66
2022-09-28T13:31:53.831Z,19.62
2022-09-28T13:34:32.615Z,20.05
2022-09-28T13:37:17.502Z,20.07
2022-09-28T13:39:44.843Z,20.02
2022-09-28T13:42:42.213Z,19.90
2022-09-28T13:45:29.088Z,19.65
2022-09-28T13:48:10.700Z,19.74
2022-09-28T13:50:50.537Z,19.40
2022-09-28T13:53:51.830Z,19.58
2022-09-28T13:56:30.565Z,19.62
2022-09-28T13:59:23.519Z,19.52
2022-09-28T14:01:55.764Z,19.29
2022-09-28T14:04:44.047Z,19.29
2022-09-28T14:07:16.832Z,19.46
2022-09-28T14:09:48.204Z,19.14
2022-09-28T14:12:51.424Z,18.94
2022-09-28T14:15:31.256Z,19.37
2022-09-28T14:18:19.141Z,19.32
2022-09-28T14:21:06.041Z,19.21
2022-09-28T14:23:50.838Z,19.11
2022-09-28T14:26:33.310Z,19.24
2022-09-28T14:29:22.847Z,18.95
2022-09-28T14:31:50.450Z,19.43
2022-09-28T14:34:44.070Z,19.12
2022-09-28T14:37:41.105Z,19.19
2022-09-28T14:40:36.842Z,19.18
2022-09-28T14:43:41.750Z,19.52
2022-09-28T14:46:11.827Z,19.45
2022-09-28T14:48:49.373Z,19.43
2022-09-28T14:51:26.298Z,19.23
2022-09-28T14:53:54.912Z,19.16
2022-09-28T14:56:22.343Z,19.26
2022-09-28T14:58:58.112Z,19.07
2022-09-28T15:01:25.957Z,18.95
2022-09-28T15:03:57.197Z,18.96
2022-09-28T15:06:24.915Z,18.61
2022-09-28T15:08:52.867Z,18.62
2022-09-28T15:11:21.411Z,18.64
2022-09-28T15:13:49.903Z,18.53
2022-09-28T15:16:17.739Z,18.60
2022-09-28T15:18:51.086Z,18.86
2022-09-28T15:21:18.683Z,18.90
2022-09-28T15:23:46.856Z,18.73
2022-09-28T15:26:27.558Z,18.67
2022-09-28T15:28:55.378Z,18.48
2022-09-28T15:31:24.456Z,18.82
2022-09-28T15:34:10.769Z,18.23
2022-09-28T15:36:39.863Z,18.45
2022-09-28T15:39:15.333Z,18.58
2022-09-28T15:41:43.130Z,18.52
2022-09-28T15:44:10.292Z,18.73
2022-09-28T15:46:41.924Z,18.60
2022-09-28T15:49:26.360Z,18.66
2022-09-28T15:51:54.589Z,18.91
2022-09-28T15:54:27.498Z,18.59
2022-09-28T15:56:59.775Z,18.46
2022-09-28T15:59:35.684Z,18.48
2022-09-28T16:03:24.604Z,19.03
2022-09-28T16:06:12.495Z,19.03
2022-09-28T16:08:43.498Z,18.20
2022-09-28T16:11:20.046Z,18.28
2022-09-28T16:14:27.030Z,18.24
2022-09-28T16:16:55.326Z,18.30
2022-09-28T16:19:30.080Z,18.00
2022-09-28T16:21:58.466Z,18.04
2022-09-28T16:24:31.587Z,18.04
2022-09-28T16:27:06.414Z,17.95
2022-09-28T16:29:39.043Z,18.05
2022-09-28T16:32:24.985Z,18.01
2022-09-28T16:35:19.478Z,17.98
2022-09-28T16:37:48.735Z,18.06
2022-09-28T16:40:16.122Z,17.89
2022-09-28T16:42:48.648Z,17.94
2022-09-28T16:45:19.765Z,17.78
2022-09-28T16:47:47.635Z,17.82
2022-09-28T16:50:15.174Z,17.87
2022-09-28T16:53:02.064Z,17.61
2022-09-28T16:55:39.947Z,17.78
2022-09-28T16:58:08.436Z,17.80
2022-09-28T17:00:36.229Z,17.88
2022-09-28T17:03:12.823Z,17.80
2022-09-28T17:05:40.878Z,17.86
2022-09-28T17:08:09.121Z,17.89
2022-09-28T17:13:40.924Z,17.65
2022-09-28T17:16:37.223Z,17.44
2022-09-28T17:19:23.218Z,17.75
2022-09-28T17:21:51.497Z,17.51
2022-09-28T17:24:19.258Z,17.41
2022-09-28T17:26:47.204Z,17.40
2022-09-28T17:29:14.894Z,17.37
2022-09-28T17:31:43.172Z,17.39
2022-09-28T17:34:11.374Z,17.44
2022-09-28T17:36:39.143Z,17.41
2022-09-28T17:39:06.756Z,17.45
2022-09-28T17:41:34.514Z,17.20
2022-09-28T17:44:02.915Z,17.05
2022-09-28T17:46:35.046Z,16.99
2022-09-28T17:49:03.626Z,17.11
2022-09-28T17:51:34.676Z,17.06
2022-09-28T17:54:02.164Z,17.00
2022-09-28T17:56:32.213Z,16.96
2022-09-28T17:59:01.281Z,16.93
2022-09-28T18:01:33.860Z,16.61
2022-09-28T18:04:05.552Z,16.34
2022-09-28T18:06:37.119Z,16.52
2022-09-28T18:09:05.125Z,16.40
2022-09-28T18:11:32.922Z,16.48
2022-09-28T18:14:00.653Z,16.34
2022-09-28T18:16:28.863Z,16.63
2022-09-28T18:18:56.477Z,16.43
2022-09-28T18:21:23.818Z,16.37
2022-09-28T18:23:51.371Z,16.10
2022-09-28T18:26:21.811Z,16.18
2022-09-28T18:28:49.272Z,16.11
2022-09-28T18:31:19.125Z,16.30
2022-09-28T18:33:48.388Z,16.07
2022-09-28T18:36:15.710Z,16.24
2022-09-28T18:38:43.625Z,15.91
2022-09-28T18:41:15.871Z,16.12
2022-09-28T18:43:48.747Z,16.21
2022-09-28T18:46:17.693Z,15.91
2022-09-28T18:48:46.344Z,15.75
2022-09-28T18:51:14.860Z,15.75
2022-09-28T18:53:42.576Z,15.89
2022-09-28T18:56:11.973Z,15.94
2022-09-28T18:58:39.687Z,15.92
2022-09-28T19:04:00.936Z,15.67
2022-09-28T19:06:28.416Z,15.65
2022-09-28T19:08:55.910Z,15.82
2022-09-28T19:11:23.958Z,15.89
2022-09-28T19:13:52.308Z,15.61
2022-09-28T19:16:24.217Z,16.01
2022-09-28T19:18:53.487Z,15.69
2022-09-28T19:21:21.011Z,15.67
2022-09-28T19:23:52.036Z,15.75
2022-09-28T19:26:29.056Z,15.78
2022-09-28T19:28:56.930Z,15.63
2022-09-28T19:31:24.877Z,15.66
2022-09-28T19:33:52.213Z,15.72
2022-09-28T19:36:24.005Z,15.74
2022-09-28T19:38:52.075Z,15.98
2022-09-28T19:41:44.698Z,15.83
2022-09-28T19:44:24.710Z,15.87
2022-09-28T19:46:58.989Z,15.91
2022-09-28T19:49:27.342Z,15.87
2022-09-28T19:52:12.906Z,15.95
2022-09-28T19:54:56.415Z,16.18
2022-09-28T19:57:28.399Z,15.97
2022-09-28T20:00:01.779Z,15.99
2022-09-28T20:02:34.281Z,15.81
2022-09-28T20:05:01.960Z,15.92
2022-09-28T20:07:32.820Z,15.60
2022-09-28T20:10:00.345Z,15.75
2022-09-28T20:12:27.945Z,15.81
2022-09-28T20:14:55.263Z,15.68
2022-09-28T20:17:22.620Z,15.77
2022-09-28T20:19:51.690Z,15.56
2022-09-28T20:22:19.910Z,15.86
2022-09-28T20:24:47.243Z,15.58
2022-09-28T20:27:14.827Z,15.42
2022-09-28T20:29:43.103Z,15.59
2022-09-28T20:32:11.525Z,15.75
2022-09-28T20:34:39.113Z,15.84
2022-09-28T20:37:06.484Z,15.78
2022-09-28T20:39:34.485Z,16.01
2022-09-28T20:42:02.813Z,15.85
2022-09-28T20:44:30.166Z,15.96
2022-09-28T20:46:57.510Z,15.84
2022-09-28T20:49:27.069Z,16.01
2022-09-28T20:51:54.621Z,15.78
2022-09-28T20:54:22.068Z,15.84
2022-09-28T20:56:49.620Z,15.99
2022-09-28T20:59:16.938Z,15.78
2022-09-28T21:01:44.383Z,16.03
2022-09-28T21:04:12.096Z,15.75
2022-09-28T21:06:40.762Z,15.73
2022-09-28T21:09:08.827Z,15.64
2022-09-28T21:11:36.483Z,15.70
2022-09-28T21:14:06.230Z,15.69
2022-09-28T21:16:34.038Z,15.96
2022-09-28T21:19:01.740Z,16.00
2022-09-28T21:21:29.076Z,15.69
2022-09-28T21:23:56.774Z,15.64
2022-09-28T21:26:26.184Z,15.53
2022-09-28T21:28:54.409Z,15.82
2022-09-28T21:31:26.243Z,15.72
2022-09-28T21:33:56.313Z,15.97
2022-09-28T21:36:23.654Z,15.69
2022-09-28T21:38:50.957Z,15.57
2022-09-28T21:41:18.681Z,15.56
2022-09-28T21:43:46.042Z,15.61
2022-09-28T21:46:13.515Z,15.93
2022-09-28T21:48:41.298Z,15.74
2022-09-28T21:51:10.185Z,15.83
2022-09-28T21:53:37.894Z,15.83
2022-09-28T21:56:07.291Z,15.72
2022-09-28T21:58:35.341Z,15.79
2022-09-28T22:01:07.128Z,15.65
2022-09-28T22:03:35.561Z,15.83
2022-09-28T22:06:03.728Z,15.72
2022-09-28T22:08:31.057Z,15.61
2022-09-28T22:11:02.286Z,15.81
2022-09-28T22:13:30.105Z,15.58
2022-09-28T22:16:00.656Z,15.72
2022-09-28T22:18:29.722Z,15.59
2022-09-28T22:21:03.012Z,15.70
2022-09-28T22:23:30.627Z,15.92
2022-09-28T22:25:59.752Z,16.00
2022-09-28T22:28:27.574Z,15.93
2022-09-28T22:30:55.916Z,15.68
2022-09-28T22:33:23.549Z,15.92
2022-09-28T22:35:51.344Z,15.55
2022-09-28T22:38:19.544Z,15.74
2022-09-28T22:40:48.158Z,15.85
2022-09-28T22:43:15.917Z,15.72
2022-09-28T22:45:43.499Z,15.83
2022-09-28T22:48:10.852Z,15.72
2022-09-28T22:50:39.058Z,15.83
2022-09-28T22:53:06.732Z,16.16
2022-09-28T22:55:34.100Z,15.87
2022-09-28T22:58:01.840Z,15.83
2022-09-28T23:00:30.687Z,15.99
2022-09-28T23:02:58.026Z,15.81
2022-09-28T23:05:25.411Z,15.75
2022-09-28T23:07:52.996Z,15.85
2022-09-28T23:10:20.398Z,15.98
2022-09-28T23:12:47.831Z,15.90
2022-09-28T23:15:15.490Z,15.82
2022-09-28T23:17:42.774Z,16.18
2022-09-28T23:20:10.085Z,15.90
2022-09-28T23:22:37.647Z,15.82
2022-09-28T23:25:05.284Z,15.87
2022-09-28T23:27:32.606Z,15.94
2022-09-28T23:30:00.177Z,15.93
2022-09-28T23:32:31.745Z,15.94
2022-09-28T23:34:59.708Z,16.09
2022-09-28T23:37:27.006Z,16.07
2022-09-28T23:39:54.341Z,16.20
2022-09-28T23:42:21.928Z,16.22
2022-09-28T23:44:49.227Z,16.13
2022-09-28T23:47:16.528Z,16.09
2022-09-28T23:49:44.236Z,16.43
2022-09-28T23:52:11.596Z,16.23
2022-09-28T23:54:38.905Z,16.16
2022-09-28T23:57:06.650Z,16.06
2022-09-28T23:59:33.928Z,16.05
